createdAt,value
2018-03-20T00:00:27.213Z,95.50
2018-03-20T00:02:55.506Z,95.70
2018-03-20T00:05:23.016Z,95.70
2018-03-20T00:07:50.554Z,96.10
2018-03-20T00:10:18.101Z,96.10
2018-03-20T00:12:46.386Z,95.60
2018-03-20T00:15:13.924Z,95.60
2018-03-20T00:17:41.464Z,95.20
2018-03-20T00:20:08.990Z,95.40
2018-03-20T00:22:36.529Z,95.70
2018-03-20T00:25:04.065Z,96.00
2018-03-20T00:27:31.597Z,96.20
2018-03-20T00:29:59.129Z,96.30
2018-03-20T00:32:26.657Z,96.70
2018-03-20T00:34:54.989Z,96.80
2018-03-20T00:37:22.512Z,96.80
2018-03-20T00:39:50.064Z,96.70
2018-03-20T00:42:17.593Z,97.00
2018-03-20T00:44:45.119Z,96.60
2018-03-20T00:47:12.658Z,96.70
2018-03-20T00:49:40.197Z,96.80
2018-03-20T00:52:07.709Z,96.60
2018-03-20T00:54:35.249Z,96.70
2018-03-20T00:57:02.785Z,97.00
2018-03-20T00:59:31.098Z,97.20
2018-03-20T01:01:58.628Z,97.20
2018-03-20T01:04:26.188Z,97.40
2018-03-20T01:06:53.767Z,97.50
2018-03-20T01:09:21.262Z,97.30
2018-03-20T01:11:48.782Z,97.10
2018-03-20T01:14:16.306Z,96.50
2018-03-20T01:16:44.591Z,96.10
2018-03-20T01:19:12.865Z,96.10
2018-03-20T01:21:40.396Z,96.00
2018-03-20T01:24:07.896Z,96.30
2018-03-20T01:26:35.409Z,96.50
2018-03-20T01:29:02.927Z,96.60
2018-03-20T01:31:30.453Z,96.40
2018-03-20T01:33:57.971Z,96.40
2018-03-20T01:36:25.525Z,96.30
2018-03-20T01:38:53.078Z,96.40
2018-03-20T01:41:20.616Z,96.50
2018-03-20T01:43:48.907Z,96.60
2018-03-20T01:46:17.205Z,96.80
2018-03-20T01:48:45.506Z,96.50
2018-03-20T01:51:13.109Z,96.50
2018-03-20T01:53:40.617Z,96.50
2018-03-20T01:56:08.138Z,96.40
2018-03-20T01:58:35.661Z,96.40
2018-03-20T02:01:03.206Z,96.80
2018-03-20T02:03:30.750Z,96.80
2018-03-20T02:05:58.269Z,96.80
2018-03-20T02:08:25.798Z,97.20
2018-03-20T02:10:53.341Z,97.30
2018-03-20T02:13:21.620Z,97.40
2018-03-20T02:15:50.034Z,97.50
2018-03-20T02:18:17.570Z,97.50
2018-03-20T02:20:45.858Z,97.70
2018-03-20T02:23:14.169Z,98.00
2018-03-20T02:25:41.696Z,97.60
2018-03-20T02:28:09.213Z,97.60
2018-03-20T02:30:36.743Z,97.40
2018-03-20T02:33:05.053Z,97.60
2018-03-20T02:35:32.560Z,97.60
2018-03-20T02:38:00.095Z,97.50
2018-03-20T02:40:28.413Z,97.60
2018-03-20T02:42:55.933Z,97.70
2018-03-20T02:45:23.480Z,97.70
2018-03-20T02:47:51.027Z,97.50
2018-03-20T02:50:18.572Z,97.30
2018-03-20T02:52:46.109Z,97.20
2018-03-20T02:55:13.655Z,97.40
2018-03-20T02:57:41.193Z,97.30
2018-03-20T03:00:09.559Z,97.10
2018-03-20T03:02:37.109Z,97.10
2018-03-20T03:05:04.655Z,97.10
2018-03-20T03:07:32.189Z,97.10
2018-03-20T03:10:00.483Z,96.80
2018-03-20T03:12:28.783Z,96.70
2018-03-20T03:14:57.064Z,96.30
2018-03-20T03:17:25.378Z,95.90
2018-03-20T03:19:52.911Z,95.90
2018-03-20T03:22:20.461Z,95.70
2018-03-20T03:24:48.006Z,95.90
2018-03-20T03:27:15.536Z,95.60
2018-03-20T03:29:43.149Z,95.10
2018-03-20T03:32:10.682Z,95.30
2018-03-20T03:34:39.011Z,95.50
2018-03-20T03:37:06.574Z,95.40
2018-03-20T03:39:34.102Z,95.50
2018-03-20T03:42:02.394Z,95.50
2018-03-20T03:44:29.931Z,95.50
2018-03-20T03:46:57.478Z,95.60
2018-03-20T03:49:25.026Z,95.60
2018-03-20T03:51:52.590Z,95.50
2018-03-20T03:54:20.898Z,95.60
2018-03-20T03:56:48.519Z,95.60
2018-03-20T03:59:16.057Z,95.50
2018-03-20T04:01:43.586Z,95.70
2018-03-20T04:04:11.894Z,95.20
2018-03-20T04:06:39.431Z,95.20
2018-03-20T04:09:08.422Z,95.20
2018-03-20T04:11:35.964Z,95.30
2018-03-20T04:14:03.495Z,95.30
2018-03-20T04:16:31.009Z,95.20
2018-03-20T04:18:58.550Z,95.20
2018-03-20T04:21:26.844Z,95.20
2018-03-20T04:23:54.376Z,95.20
2018-03-20T04:26:21.951Z,95.20
2018-03-20T04:28:49.491Z,94.80
2018-03-20T04:31:17.026Z,95.00
2018-03-20T04:33:45.324Z,95.40
2018-03-20T04:36:12.878Z,95.40
2018-03-20T04:38:41.184Z,95.40
2018-03-20T04:41:08.798Z,95.40
2018-03-20T04:43:36.350Z,95.50
2018-03-20T04:46:03.894Z,95.50
2018-03-20T04:48:31.422Z,95.30
2018-03-20T04:50:58.967Z,95.40
2018-03-20T04:53:26.514Z,95.30
2018-03-20T04:55:54.062Z,95.40
2018-03-20T04:58:22.362Z,95.10
2018-03-20T05:00:49.910Z,95.10
2018-03-20T05:03:17.443Z,94.90
2018-03-20T05:05:44.978Z,95.40
2018-03-20T05:08:12.530Z,94.90
2018-03-20T05:10:40.071Z,95.00
2018-03-20T05:13:07.598Z,94.80
2018-03-20T05:15:35.122Z,95.00
2018-03-20T05:18:04.200Z,94.90
2018-03-20T05:23:51.294Z,94.80
2018-03-20T05:26:19.558Z,94.20
2018-03-20T05:28:54.548Z,94.10
2018-03-20T05:31:22.771Z,94.30
2018-03-20T05:33:51.035Z,94.40
2018-03-20T05:36:18.526Z,94.40
2018-03-20T05:38:46.090Z,94.60
2018-03-20T05:41:13.594Z,94.60
2018-03-20T05:43:41.100Z,94.00
2018-03-20T05:46:08.838Z,93.90
2018-03-20T05:48:48.883Z,94.40
2018-03-20T05:51:44.032Z,94.40
2018-03-20T05:54:11.536Z,94.20
2018-03-20T05:56:39.035Z,94.20
2018-03-20T05:59:06.541Z,93.80
2018-03-20T06:01:34.038Z,93.70
2018-03-20T06:04:02.300Z,93.70
2018-03-20T06:09:26.655Z,93.20
2018-03-20T06:12:07.062Z,93.10
2018-03-20T06:14:34.550Z,93.20
2018-03-20T06:17:02.063Z,92.50
2018-03-20T06:19:36.129Z,91.90
2018-03-20T06:22:03.630Z,92.20
2018-03-20T06:24:31.132Z,91.90
2018-03-20T06:26:59.435Z,91.00
2018-03-20T06:29:26.923Z,91.00
2018-03-20T06:31:54.422Z,90.60
2018-03-20T06:34:22.700Z,89.70
2018-03-20T06:36:50.968Z,86.60
2018-03-20T06:39:19.223Z,86.30
2018-03-20T06:41:46.721Z,85.80
2018-03-20T06:44:14.219Z,83.50
2018-03-20T06:46:41.724Z,84.00
2018-03-20T06:49:09.987Z,85.50
2018-03-20T06:51:37.704Z,85.40
2018-03-20T06:54:05.203Z,83.20
2018-03-20T06:56:32.690Z,81.50
2018-03-20T06:59:00.198Z,81.60
2018-03-20T07:01:33.748Z,81.90
2018-03-20T07:04:02.037Z,84.80
2018-03-20T07:06:30.286Z,84.90
2018-03-20T07:08:58.563Z,81.60
2018-03-20T07:11:26.827Z,81.20
2018-03-20T07:13:54.335Z,80.60
2018-03-20T07:16:21.863Z,79.90
2018-03-20T07:18:50.123Z,79.70
2018-03-20T07:21:17.640Z,79.60
2018-03-20T07:23:45.306Z,79.10
2018-03-20T07:26:12.791Z,78.60
2018-03-20T07:28:41.074Z,80.40
2018-03-20T07:31:08.580Z,80.40
2018-03-20T07:33:36.083Z,80.00
2018-03-20T07:36:03.587Z,80.00
2018-03-20T07:38:31.103Z,77.70
2018-03-20T07:40:58.598Z,77.40
2018-03-20T07:43:26.103Z,77.20
2018-03-20T07:45:53.594Z,77.50
2018-03-20T07:48:21.099Z,75.80
2018-03-20T07:50:48.603Z,75.60
2018-03-20T07:53:16.110Z,76.60
2018-03-20T07:55:43.607Z,74.40
2018-03-20T07:58:25.222Z,73.50
2018-03-20T08:00:53.487Z,71.10
2018-03-20T08:03:20.994Z,70.90
2018-03-20T08:05:55.386Z,73.10
2018-03-20T08:08:23.646Z,73.40
2018-03-20T08:10:57.263Z,73.40
2018-03-20T08:13:25.526Z,69.60
2018-03-20T08:15:53.792Z,70.70
2018-03-20T08:18:21.286Z,69.90
2018-03-20T08:20:48.780Z,69.20
2018-03-20T08:23:16.271Z,67.80
2018-03-20T08:25:43.765Z,64.80
2018-03-20T08:28:11.268Z,65.90
2018-03-20T08:30:38.762Z,68.10
2018-03-20T08:33:07.038Z,63.10
2018-03-20T08:35:35.382Z,59.90
2018-03-20T08:38:03.000Z,59.80
2018-03-20T08:40:30.487Z,61.90
2018-03-20T08:42:57.983Z,62.40
2018-03-20T08:45:25.530Z,61.50
2018-03-20T08:47:53.043Z,58.00
2018-03-20T08:50:20.532Z,59.40
2018-03-20T08:52:48.038Z,59.50
2018-03-20T08:55:16.291Z,57.40
2018-03-20T08:57:43.791Z,57.30
2018-03-20T09:00:11.282Z,58.10
2018-03-20T09:02:38.775Z,56.70
2018-03-20T09:05:07.030Z,54.40
2018-03-20T09:07:34.526Z,54.80
2018-03-20T09:10:02.035Z,51.50
2018-03-20T09:12:29.579Z,50.30
2018-03-20T09:14:57.794Z,41.40
2018-03-20T09:17:25.286Z,41.10
2018-03-20T09:19:52.779Z,40.00
2018-03-20T09:22:20.263Z,37.70
2018-03-20T09:24:47.763Z,36.40
2018-03-20T09:27:15.251Z,37.70
2018-03-20T09:29:42.735Z,35.90
2018-03-20T09:32:10.220Z,33.80
2018-03-20T09:34:38.478Z,32.90
2018-03-20T09:37:05.969Z,32.90
2018-03-20T09:39:33.462Z,35.70
2018-03-20T09:42:00.943Z,34.60
2018-03-20T09:44:28.445Z,33.60
2018-03-20T09:46:55.940Z,31.40
2018-03-20T09:49:23.431Z,34.40
2018-03-20T09:51:50.913Z,35.70
2018-03-20T09:54:18.407Z,28.70
2018-03-20T09:56:45.895Z,27.30
2018-03-20T09:59:13.394Z,26.70
2018-03-20T10:01:40.895Z,26.80
2018-03-20T10:04:08.384Z,31.20
2018-03-20T10:06:35.891Z,30.00
2018-03-20T10:09:03.418Z,30.60
2018-03-20T10:11:31.662Z,30.70
2018-03-20T10:13:59.154Z,30.70
2018-03-20T10:16:27.413Z,28.40
2018-03-20T10:18:54.907Z,28.40
2018-03-20T10:21:22.403Z,28.10
2018-03-20T10:23:49.902Z,29.70
2018-03-20T10:26:18.255Z,24.00
2018-03-20T10:28:45.770Z,24.00
2018-03-20T10:31:13.251Z,26.00
2018-03-20T10:33:40.739Z,28.90
2018-03-20T10:36:18.923Z,29.60
2018-03-20T10:38:46.407Z,28.80
2018-03-20T10:41:13.895Z,28.10
2018-03-20T10:43:41.450Z,28.00
2018-03-20T10:46:08.963Z,26.10
2018-03-20T10:48:36.454Z,28.00
2018-03-20T10:51:04.708Z,27.90
2018-03-20T10:53:32.190Z,27.80
2018-03-20T10:56:00.448Z,25.60
2018-03-20T10:58:27.939Z,25.60
2018-03-20T11:01:11.102Z,28.90
2018-03-20T11:03:38.593Z,28.60
2018-03-20T11:06:06.086Z,31.60
2018-03-20T11:08:33.575Z,30.10
2018-03-20T11:11:10.713Z,27.30
2018-03-20T11:13:38.966Z,26.50
2018-03-20T11:16:06.462Z,26.40
2018-03-20T11:18:33.947Z,25.40
2018-03-20T11:21:01.451Z,29.50
2018-03-20T11:23:29.707Z,28.90
2018-03-20T11:25:57.199Z,28.50
2018-03-20T11:28:25.454Z,27.50
2018-03-20T11:30:52.946Z,27.40
2018-03-20T11:33:20.439Z,24.20
2018-03-20T11:35:47.935Z,21.70
2018-03-20T11:38:15.423Z,24.50
2018-03-20T11:40:42.910Z,24.90
2018-03-20T11:43:10.395Z,25.50
2018-03-20T11:45:37.894Z,25.60
2018-03-20T11:48:05.391Z,24.60
2018-03-20T11:50:32.878Z,24.00
2018-03-20T11:53:00.392Z,24.10
2018-03-20T11:55:27.907Z,26.80
2018-03-20T11:57:56.175Z,24.70
2018-03-20T12:00:23.694Z,24.60
2018-03-20T12:02:51.190Z,24.50
2018-03-20T12:05:18.678Z,22.90
2018-03-20T12:07:54.024Z,25.00
2018-03-20T12:10:21.572Z,23.40
2018-03-20T12:12:49.145Z,23.30
2018-03-20T12:15:16.684Z,25.40
2018-03-20T12:17:44.980Z,23.30
2018-03-20T12:20:12.543Z,23.20
2018-03-20T12:22:40.207Z,24.90
2018-03-20T12:25:07.756Z,27.40
2018-03-20T12:27:35.344Z,23.90
2018-03-20T12:30:02.898Z,26.80
2018-03-20T12:32:30.457Z,24.50
2018-03-20T12:34:58.068Z,25.00
2018-03-20T12:37:26.389Z,27.00
2018-03-20T12:39:53.929Z,26.90
2018-03-20T12:42:21.488Z,29.20
2018-03-20T12:44:49.034Z,25.40
2018-03-20T12:47:17.404Z,25.60
2018-03-20T12:49:45.749Z,25.50
2018-03-20T12:52:13.361Z,25.50
2018-03-20T12:54:41.681Z,25.50
2018-03-20T12:57:09.253Z,25.30
2018-03-20T12:59:36.823Z,26.10
2018-03-20T13:02:04.400Z,25.80
2018-03-20T13:04:32.011Z,24.10
2018-03-20T13:06:59.609Z,20.50
2018-03-20T13:09:27.168Z,23.00
2018-03-20T13:11:55.496Z,22.50
2018-03-20T13:14:23.112Z,22.40
2018-03-20T13:16:50.760Z,26.10
2018-03-20T13:19:19.072Z,23.20
2018-03-20T13:21:47.291Z,23.10
2018-03-20T13:24:14.795Z,23.10
2018-03-20T13:26:42.939Z,26.20
2018-03-20T13:29:10.645Z,26.20
2018-03-20T13:31:38.354Z,24.80
2018-03-20T13:34:05.942Z,25.40
2018-03-20T13:36:34.202Z,21.00
2018-03-20T13:39:02.255Z,21.00
2018-03-20T13:41:29.751Z,19.70
2018-03-20T13:43:58.002Z,24.10
2018-03-20T13:46:26.259Z,27.60
2018-03-20T13:48:53.753Z,27.60
2018-03-20T13:51:22.031Z,27.70
2018-03-20T13:53:50.359Z,28.60
2018-03-20T13:56:17.842Z,28.60
2018-03-20T13:58:45.386Z,28.30
2018-03-20T14:01:12.822Z,28.90
2018-03-20T14:03:40.310Z,28.00
2018-03-20T14:06:07.804Z,28.50
2018-03-20T14:08:36.070Z,32.30
2018-03-20T14:11:04.348Z,31.90
2018-03-20T14:13:32.611Z,32.60
2018-03-20T14:16:00.087Z,32.50
2018-03-20T14:18:28.343Z,33.70
2018-03-20T14:20:55.822Z,33.60
2018-03-20T14:23:23.896Z,33.90
2018-03-20T14:25:51.579Z,31.50
2018-03-20T14:28:20.608Z,29.00
2018-03-20T14:30:48.185Z,29.00
2018-03-20T14:33:15.742Z,33.00
2018-03-20T14:35:43.227Z,34.20
2018-03-20T14:38:11.487Z,33.60
2018-03-20T14:40:38.970Z,33.60
2018-03-20T14:43:07.234Z,37.10
2018-03-20T14:45:35.484Z,37.80
2018-03-20T14:48:02.982Z,37.70
2018-03-20T14:50:30.471Z,38.40
2018-03-20T14:52:57.971Z,37.20
2018-03-20T14:55:25.464Z,36.20
2018-03-20T14:57:52.976Z,34.80
2018-03-20T15:00:20.451Z,33.40
2018-03-20T15:02:47.939Z,33.20
2018-03-20T15:05:15.431Z,33.40
2018-03-20T15:07:42.920Z,34.00
2018-03-20T15:10:10.411Z,34.90
2018-03-20T15:12:37.899Z,34.60
2018-03-20T15:15:05.395Z,31.80
2018-03-20T15:17:32.882Z,30.40
2018-03-20T15:20:00.932Z,29.50
2018-03-20T15:22:29.197Z,29.10
2018-03-20T15:24:56.743Z,29.10
2018-03-20T15:27:24.227Z,28.90
2018-03-20T15:29:51.719Z,28.60
2018-03-20T15:32:19.205Z,28.00
2018-03-20T15:34:47.167Z,27.80
2018-03-20T15:37:14.642Z,27.20
2018-03-20T15:39:42.131Z,27.50
2018-03-20T15:42:10.379Z,31.50
2018-03-20T15:44:38.711Z,31.20
2018-03-20T15:47:06.196Z,29.90
2018-03-20T15:49:33.683Z,31.80
2018-03-20T15:52:01.175Z,35.10
2018-03-20T15:54:29.459Z,36.50
2018-03-20T15:56:56.962Z,36.30
2018-03-20T15:59:24.463Z,37.50
2018-03-20T16:01:52.780Z,41.20
2018-03-20T16:04:20.276Z,41.20
2018-03-20T16:06:47.767Z,40.80
2018-03-20T16:09:15.344Z,40.00
2018-03-20T16:11:42.841Z,39.40
2018-03-20T16:14:12.264Z,41.40
2018-03-20T16:16:39.778Z,41.50
2018-03-20T16:19:07.279Z,41.80
2018-03-20T16:21:34.782Z,43.50
2018-03-20T16:24:02.329Z,45.50
2018-03-20T16:26:29.960Z,43.80
2018-03-20T16:28:57.451Z,44.00
2018-03-20T16:31:25.113Z,42.90
2018-03-20T16:33:52.838Z,41.80
2018-03-20T16:36:20.455Z,41.90
2018-03-20T16:38:48.000Z,42.10
2018-03-20T16:43:49.451Z,42.20
2018-03-20T16:46:17.714Z,44.00
2018-03-20T16:48:45.991Z,44.60
2018-03-20T16:51:14.291Z,46.20
2018-03-20T16:53:41.872Z,46.10
2018-03-20T16:56:09.383Z,48.10
2018-03-20T16:58:36.872Z,47.40
2018-03-20T17:01:04.693Z,47.70
2018-03-20T17:03:33.280Z,46.90
2018-03-20T17:06:00.919Z,47.50
2018-03-20T17:08:28.687Z,48.80
2018-03-20T17:10:57.174Z,49.10
2018-03-20T17:13:25.481Z,49.70
2018-03-20T17:15:52.990Z,49.70
2018-03-20T17:18:20.476Z,50.70
2018-03-20T17:20:51.512Z,51.30
2018-03-20T17:23:19.796Z,51.50
2018-03-20T17:25:47.302Z,51.40
2018-03-20T17:28:14.804Z,51.90
2018-03-20T17:30:42.308Z,52.80
2018-03-20T17:33:09.840Z,53.10
2018-03-20T17:35:37.343Z,52.80
2018-03-20T17:38:04.894Z,53.00
2018-03-20T17:40:32.391Z,52.80
2018-03-20T17:43:00.869Z,53.70
2018-03-20T17:45:28.354Z,54.70
2018-03-20T17:47:56.372Z,55.80
2018-03-20T17:50:23.882Z,57.10
2018-03-20T17:52:51.459Z,57.90
2018-03-20T17:55:18.995Z,58.40
2018-03-20T17:57:46.682Z,60.70
2018-03-20T18:00:15.291Z,62.20
2018-03-20T18:02:42.783Z,62.10
2018-03-20T18:05:10.275Z,61.70
2018-03-20T18:07:37.778Z,59.50
2018-03-20T18:10:05.288Z,60.50
2018-03-20T18:12:32.792Z,60.00
2018-03-20T18:15:00.284Z,61.90
2018-03-20T18:17:27.778Z,62.50
2018-03-20T18:19:56.283Z,64.40
2018-03-20T18:22:23.770Z,64.50
2018-03-20T18:24:51.583Z,65.80
2018-03-20T18:27:19.859Z,66.90
2018-03-20T18:29:48.104Z,68.20
2018-03-20T18:32:15.619Z,68.20
2018-03-20T18:34:43.111Z,70.60
2018-03-20T18:37:10.608Z,73.00
2018-03-20T18:39:38.868Z,75.40
2018-03-20T18:42:06.363Z,75.40
2018-03-20T18:44:33.847Z,76.30
2018-03-20T18:47:01.380Z,77.10
2018-03-20T18:49:28.935Z,78.70
2018-03-20T18:51:56.431Z,79.80
2018-03-20T18:54:23.939Z,80.60
2018-03-20T18:56:52.215Z,81.40
2018-03-20T18:59:23.711Z,82.20
2018-03-20T19:01:51.220Z,82.10
2018-03-20T19:04:18.711Z,82.50
2018-03-20T19:06:46.200Z,83.30
2018-03-20T19:09:13.715Z,84.60
2018-03-20T19:11:41.506Z,85.30
2018-03-20T19:14:09.004Z,86.00
2018-03-20T19:16:36.509Z,86.60
2018-03-20T19:19:04.008Z,87.20
2018-03-20T19:21:31.515Z,87.60
2018-03-20T19:23:59.003Z,88.20
2018-03-20T19:26:26.502Z,88.30
2018-03-20T19:28:54.228Z,89.40
2018-03-20T19:31:21.841Z,89.00
2018-03-20T19:33:50.387Z,89.80
2018-03-20T19:36:17.896Z,89.90
2018-03-20T19:38:46.159Z,90.10
2018-03-20T19:41:14.416Z,90.30
2018-03-20T19:43:41.920Z,90.30
2018-03-20T19:46:09.801Z,90.70
2018-03-20T19:48:37.315Z,90.80
2018-03-20T19:51:04.802Z,91.40
2018-03-20T19:53:32.300Z,92.10
2018-03-20T19:55:59.833Z,92.10
2018-03-20T19:58:27.328Z,92.30
2018-03-20T20:00:54.820Z,92.50
2018-03-20T20:03:23.085Z,92.80
2018-03-20T20:05:51.348Z,93.30
2018-03-20T20:08:18.991Z,93.20
2018-03-20T20:10:46.475Z,93.80
2018-03-20T20:13:13.971Z,93.80
2018-03-20T20:15:41.458Z,94.10
2018-03-20T20:18:08.960Z,94.20
2018-03-20T20:20:37.217Z,94.40
2018-03-20T20:23:04.719Z,94.40
2018-03-20T20:25:32.269Z,94.50
2018-03-20T20:27:59.731Z,94.20
2018-03-20T20:30:27.386Z,94.00
2018-03-20T20:32:55.650Z,94.10
2018-03-20T20:35:38.763Z,94.00
2018-03-20T20:38:06.331Z,94.00
2018-03-20T20:40:34.583Z,93.60
2018-03-20T20:43:02.300Z,93.80
2018-03-20T20:45:30.040Z,94.20
2018-03-20T20:47:57.543Z,93.90
2018-03-20T20:50:25.044Z,94.50
2018-03-20T20:52:52.707Z,93.90
2018-03-20T20:55:20.973Z,93.60
2018-03-20T20:57:48.499Z,93.60
2018-03-20T21:00:19.447Z,93.70
2018-03-20T21:02:46.959Z,94.00
2018-03-20T21:05:15.254Z,94.40
2018-03-20T21:07:42.782Z,94.40
2018-03-20T21:10:21.119Z,93.90
2018-03-20T21:12:48.623Z,93.80
2018-03-20T21:15:16.136Z,93.30
2018-03-20T21:17:44.399Z,93.90
2018-03-20T21:20:12.669Z,93.40
2018-03-20T21:22:40.996Z,93.50
2018-03-20T21:25:08.498Z,93.20
2018-03-20T21:27:36.012Z,93.30
2018-03-20T21:30:05.455Z,93.20
2018-03-20T21:32:38.635Z,93.40
2018-03-20T21:35:18.748Z,93.40
2018-03-20T21:37:46.248Z,93.40
2018-03-20T21:40:13.740Z,93.50
2018-03-20T21:42:42.011Z,93.50
2018-03-20T21:45:10.279Z,93.90
2018-03-20T21:47:42.195Z,94.20
2018-03-20T21:50:09.848Z,93.80
2018-03-20T21:52:37.355Z,94.10
2018-03-20T21:55:04.850Z,94.20
2018-03-20T21:57:32.343Z,94.30
2018-03-20T21:59:59.852Z,94.00
2018-03-20T22:02:28.124Z,94.50
2018-03-20T22:04:56.399Z,94.70
2018-03-20T22:07:24.667Z,95.00
2018-03-20T22:09:52.942Z,95.00
2018-03-20T22:12:21.195Z,95.20
2018-03-20T22:14:48.699Z,95.20
2018-03-20T22:17:16.200Z,95.30
2018-03-20T22:19:43.703Z,95.30
2018-03-20T22:22:11.972Z,95.90
2018-03-20T22:24:40.243Z,96.10
2018-03-20T22:27:07.731Z,95.80
2018-03-20T22:29:35.233Z,95.80
2018-03-20T22:32:02.738Z,95.70
2018-03-20T22:34:31.084Z,95.70
2018-03-20T22:36:58.591Z,95.70
2018-03-20T22:39:26.106Z,96.00
2018-03-20T22:41:53.598Z,95.80
2018-03-20T22:44:21.099Z,96.00
2018-03-20T22:46:48.598Z,96.20
2018-03-20T22:49:16.870Z,96.10
2018-03-20T22:51:44.371Z,96.10
2018-03-20T22:54:11.874Z,96.10
2018-03-20T22:56:39.378Z,96.10
2018-03-20T22:59:06.885Z,96.30
2018-03-20T23:01:34.385Z,96.70
2018-03-20T23:04:02.655Z,96.70
2018-03-20T23:06:30.910Z,97.00
2018-03-20T23:08:58.423Z,97.00
2018-03-20T23:11:25.914Z,97.20
2018-03-20T23:13:53.418Z,97.00
2018-03-20T23:16:20.911Z,97.40
2018-03-20T23:18:48.415Z,97.50
2018-03-20T23:21:16.676Z,97.50
2018-03-20T23:23:44.207Z,97.50
2018-03-20T23:26:11.704Z,97.90
2018-03-20T23:28:39.994Z,98.70
2018-03-20T23:31:08.259Z,98.60
2018-03-20T23:33:36.526Z,98.50
2018-03-20T23:36:04.028Z,98.40
2018-03-20T23:38:31.527Z,99.10
2018-03-20T23:40:59.027Z,98.80
2018-03-20T23:43:26.533Z,98.80
2018-03-20T23:45:54.019Z,99.10
2018-03-20T23:48:21.543Z,99.20
2018-03-20T23:50:49.038Z,99.60
2018-03-20T23:53:16.532Z,99.50
2018-03-20T23:55:44.048Z,99.10
2018-03-20T23:58:11.542Z,98.90
